Cooperative Ambassador — WDB9871 — position and weather

sailwx.info

Track history (hours):
 
Tides and Currents Weather Stations Pressure Air Temp Water Temp Dewpoint Dewpoint Depression Visibility Wind Speed Wind Dir Waves Ship Positions

Cooperative Ambassador

Owner: American River Transportation Company, St Louis, MO. More information available from US FCC via Universal Licensing System and Coast Guard Vessel Documentation Center.

Last reported at 2017-Apr-29 11:55 UTC. Time now 2017-Apr-29 15:24 UTC.
Position N 40°46' W 091°06'.

Length 43 m.

Type: Towing. MMSI: 366984260.

Date/timePositionNaut miles runAvg speedWind from/ knotsBaromVisibWave heightAir tempDewpointWater temp
2017-Apr-29 11:55N 40°46' W 091°06'3 6.6
2017-Apr-29 11:30N 40°49' W 091°06'1 2.7
2017-Apr-29 11:00N 40°50' W 091°05'0 0.0
2017-Apr-29 10:30N 40°50' W 091°05'0 0.0
2017-Apr-29 10:00N 40°50' W 091°05'0 0.0
2017-Apr-29 09:30N 40°50' W 091°05'0 0.0
2017-Apr-29 09:00N 40°50' W 091°05'0 0.0
2017-Apr-29 08:30N 40°50' W 091°05'0 0.0
2017-Apr-29 08:00N 40°50' W 091°05'0 0.0
2017-Apr-29 07:30N 40°50' W 091°05'0 0.0
2017-Apr-29 07:00N 40°50' W 091°05'0 0.0
2017-Apr-29 06:30N 40°50' W 091°05'0 0.0
2017-Apr-29 06:00N 40°50' W 091°05'0 0.0
2017-Apr-29 05:30N 40°50' W 091°05'0 0.0
2017-Apr-29 05:00N 40°50' W 091°05'0 0.0
2017-Apr-29 04:30N 40°50' W 091°05'0 0.0
2017-Apr-29 04:00N 40°50' W 091°05'0 0.8
2017-Apr-29 03:30N 40°50' W 091°05'3 5.8
2017-Apr-29 03:00N 40°52' W 091°02'1 2.0
2017-Apr-29 02:30N 40°53' W 091°01'1 1.8
2017-Apr-29 02:00N 40°54' W 091°01'3 5.7
2017-Apr-29 01:30N 40°55' W 090°58'3 6.2
2017-Apr-29 01:00N 40°59' W 090°57'  
2017-Apr-24 01:40N 38°52' W 090°35'1 5.4
2017-Apr-24 01:28N 38°52' W 090°34'2 4.0
2017-Apr-24 01:00N 38°53' W 090°32'1 2.9
2017-Apr-24 00:30N 38°54' W 090°31'3 6.3
2017-Apr-24 00:00N 38°57' W 090°29'3 5.8
2017-Apr-23 23:30N 38°58' W 090°25'1 1.6
2017-Apr-23 23:00N 38°58' W 090°24'1 2.8
2017-Apr-23 22:30N 38°57' W 090°22'2 4.7
2017-Apr-23 22:00N 38°56' W 090°20'2 4.4
2017-Apr-23 21:30N 38°55' W 090°17'4 0.2
2017-Apr-22 22:38N 38°54' W 090°12'1 7.0
2017-Apr-22 22:28N 38°55' W 090°13'1 2.0
2017-Apr-22 21:59N 38°55' W 090°14'0 0.0
2017-Apr-22 21:29N 38°55' W 090°14'0 0.8
2017-Apr-22 21:00N 38°55' W 090°15'3 6.4
2017-Apr-22 20:30N 38°56' W 090°19'3 6.7
2017-Apr-22 20:00N 38°57' W 090°23'1 2.7
2017-Apr-22 19:30N 38°58' W 090°24'3 6.8
2017-Apr-22 19:00N 38°58' W 090°29'3 5.2
2017-Apr-22 18:30N 38°57' W 090°32'  
2017-Apr-19 19:27N 39°00' W 090°34'2 4.3
2017-Apr-19 19:00N 38°59' W 090°33'2 4.2
2017-Apr-19 18:30N 38°57' W 090°31'2 4.2
2017-Apr-19 18:00N 38°58' W 090°28'2 3.7
2017-Apr-19 17:30N 38°58' W 090°26'2 3.6
2017-Apr-19 17:00N 38°58' W 090°24'2 4.1
2017-Apr-19 16:30N 38°57' W 090°21'2 4.0
2017-Apr-19 16:00N 38°56' W 090°19'2 3.8
2017-Apr-19 15:30N 38°55' W 090°17'3 4.0
2017-Apr-19 14:39N 38°54' W 090°13'  
Track history (hours):
 
Tides and Currents Weather Stations Pressure Air Temp Water Temp Dewpoint Dewpoint Depression Visibility Wind Speed Wind Dir Waves Ship Positions

Cooperative Ambassador

Owner: American River Transportation Company, St Louis, MO. More information available from US FCC via Universal Licensing System and Coast Guard Vessel Documentation Center.

Last reported at 2017-Apr-29 11:55 UTC. Time now 2017-Apr-29 15:24 UTC.
Position N 40°46' W 091°06'.

Length 43 m.

Type: Towing. MMSI: 366984260.

Date/timePositionNaut miles runAvg speedWind from/ knotsBaromVisibWave heightAir tempDewpointWater temp
2017-Apr-29 11:55N 40°46' W 091°06'3 6.6
2017-Apr-29 11:30N 40°49' W 091°06'1 2.7
2017-Apr-29 11:00N 40°50' W 091°05'0 0.0
2017-Apr-29 10:30N 40°50' W 091°05'0 0.0
2017-Apr-29 10:00N 40°50' W 091°05'0 0.0
2017-Apr-29 09:30N 40°50' W 091°05'0 0.0
2017-Apr-29 09:00N 40°50' W 091°05'0 0.0
2017-Apr-29 08:30N 40°50' W 091°05'0 0.0
2017-Apr-29 08:00N 40°50' W 091°05'0 0.0
2017-Apr-29 07:30N 40°50' W 091°05'0 0.0
2017-Apr-29 07:00N 40°50' W 091°05'0 0.0
2017-Apr-29 06:30N 40°50' W 091°05'0 0.0
2017-Apr-29 06:00N 40°50' W 091°05'0 0.0
2017-Apr-29 05:30N 40°50' W 091°05'0 0.0
2017-Apr-29 05:00N 40°50' W 091°05'0 0.0
2017-Apr-29 04:30N 40°50' W 091°05'0 0.0
2017-Apr-29 04:00N 40°50' W 091°05'0 0.8
2017-Apr-29 03:30N 40°50' W 091°05'3 5.8
2017-Apr-29 03:00N 40°52' W 091°02'1 2.0
2017-Apr-29 02:30N 40°53' W 091°01'1 1.8
2017-Apr-29 02:00N 40°54' W 091°01'3 5.7
2017-Apr-29 01:30N 40°55' W 090°58'3 6.2
2017-Apr-29 01:00N 40°59' W 090°57'  
2017-Apr-24 01:40N 38°52' W 090°35'1 5.4
2017-Apr-24 01:28N 38°52' W 090°34'2 4.0
2017-Apr-24 01:00N 38°53' W 090°32'1 2.9
2017-Apr-24 00:30N 38°54' W 090°31'3 6.3
2017-Apr-24 00:00N 38°57' W 090°29'3 5.8
2017-Apr-23 23:30N 38°58' W 090°25'1 1.6
2017-Apr-23 23:00N 38°58' W 090°24'1 2.8
2017-Apr-23 22:30N 38°57' W 090°22'2 4.7
2017-Apr-23 22:00N 38°56' W 090°20'2 4.4
2017-Apr-23 21:30N 38°55' W 090°17'4 0.2
2017-Apr-22 22:38N 38°54' W 090°12'1 7.0
2017-Apr-22 22:28N 38°55' W 090°13'1 2.0
2017-Apr-22 21:59N 38°55' W 090°14'0 0.0
2017-Apr-22 21:29N 38°55' W 090°14'0 0.8
2017-Apr-22 21:00N 38°55' W 090°15'3 6.4
2017-Apr-22 20:30N 38°56' W 090°19'3 6.7
2017-Apr-22 20:00N 38°57' W 090°23'1 2.7
2017-Apr-22 19:30N 38°58' W 090°24'3 6.8
2017-Apr-22 19:00N 38°58' W 090°29'3 5.2
2017-Apr-22 18:30N 38°57' W 090°32'  
2017-Apr-19 19:27N 39°00' W 090°34'2 4.3
2017-Apr-19 19:00N 38°59' W 090°33'2 4.2
2017-Apr-19 18:30N 38°57' W 090°31'2 4.2
2017-Apr-19 18:00N 38°58' W 090°28'2 3.7
2017-Apr-19 17:30N 38°58' W 090°26'2 3.6
2017-Apr-19 17:00N 38°58' W 090°24'2 4.1
2017-Apr-19 16:30N 38°57' W 090°21'2 4.0
2017-Apr-19 16:00N 38°56' W 090°19'2 3.8
2017-Apr-19 15:30N 38°55' W 090°17'3 4.0
2017-Apr-19 14:39N 38°54' W 090°13'  

Dump ship's entire track history